Time;durP1;ratioP1;P1;durP2;ratioP2;P2;SDS_P1;SDS_P2;PMS_P1;PMS_P2;Temp;Humidity;BMP_temperature;BMP_pressure;BME280_temperature;BME280_humidity;BME280_pressure;Samples;Min_cycle;Max_cycle;Signal;HPM_P1;HPM_P2
2024/03/02 00:00:49;;;;;;;22.35;19.30;;;4.90;99.90;;;;;;5028071;28;20285;-62
2024/03/02 00:03:18;;;;;;;26.85;19.90;;;4.90;99.90;;;;;;5027283;28;20289;-62
2024/03/02 00:05:46;;;;;;;25.30;19.90;;;4.90;99.90;;;;;;5024528;28;20217;-62
2024/03/02 00:08:16;;;;;;;23.40;17.88;;;4.80;99.90;;;;;;5026045;28;20231;-63
2024/03/02 00:10:43;;;;;;;25.50;17.77;;;4.80;99.90;;;;;;5015252;28;20233;-63
2024/03/02 00:13:10;;;;;;;28.02;19.77;;;4.80;99.90;;;;;;5018111;28;20273;-63
2024/03/02 00:15:46;;;;;;;23.40;17.45;;;4.80;99.90;;;;;;5017826;28;20754;-61
2024/03/02 00:18:15;;;;;;;22.77;18.08;;;4.80;99.90;;;;;;5028650;28;20319;-62
2024/03/02 00:20:43;;;;;;;27.67;18.73;;;4.80;99.90;;;;;;5022452;28;20214;-62
2024/03/02 00:23:15;;;;;;;22.55;19.35;;;4.70;99.90;;;;;;5022552;28;20737;-63
2024/03/02 00:25:44;;;;;;;24.20;18.75;;;4.70;99.90;;;;;;5028751;28;20231;-62
2024/03/02 00:28:20;;;;;;;24.20;17.50;;;4.70;99.90;;;;;;5020149;28;20314;-63
2024/03/02 00:30:57;;;;;;;25.10;18.35;;;4.70;99.90;;;;;;5022123;28;20831;-63
2024/03/02 00:33:27;;;;;;;24.42;18.75;;;4.70;99.90;;;;;;5027958;28;20217;-61
2024/03/02 00:35:56;;;;;;;19.08;16.42;;;4.70;99.90;;;;;;5028418;28;20998;-63
2024/03/02 00:38:23;;;;;;;27.50;20.25;;;4.60;99.90;;;;;;5075417;22;20238;-62
2024/03/02 00:40:50;;;;;;;28.23;20.45;;;4.60;99.90;;;;;;5059535;28;20213;-62
2024/03/02 00:43:40;;;;;;;24.73;18.70;;;4.60;99.90;;;;;;5067766;28;20206;-61
2024/03/02 00:46:07;;;;;;;24.10;18.67;;;4.60;99.90;;;;;;5054965;28;20209;-61
2024/03/02 00:48:35;;;;;;;27.48;18.38;;;4.60;99.90;;;;;;5062942;28;20317;-62
2024/03/02 00:51:04;;;;;;;24.63;19.85;;;4.60;99.90;;;;;;5055163;28;20591;-62
2024/03/02 00:53:33;;;;;;;28.95;21.17;;;4.60;99.90;;;;;;5068060;28;20296;-62
2024/03/02 00:56:00;;;;;;;25.05;19.00;;;4.60;99.90;;;;;;5068183;28;20210;-61
2024/03/02 00:58:27;;;;;;;20.95;17.45;;;4.60;99.90;;;;;;5068211;28;20228;-61
2024/03/02 01:00:54;;;;;;;22.90;17.63;;;4.60;99.90;;;;;;5068000;28;20216;-61
2024/03/02 01:03:21;;;;;;;24.38;19.08;;;4.60;99.90;;;;;;5067705;28;20209;-61
2024/03/02 01:05:48;;;;;;;22.80;18.30;;;4.60;99.90;;;;;;5068446;28;20610;-61
2024/03/02 01:08:16;;;;;;;25.67;18.80;;;4.60;99.90;;;;;;5065431;28;20232;-62
2024/03/02 01:10:43;;;;;;;27.92;18.40;;;4.60;99.90;;;;;;5061202;28;20233;-62
2024/03/02 01:13:10;;;;;;;24.27;19.63;;;4.60;99.90;;;;;;5056610;28;20376;-62
2024/03/02 01:15:36;;;;;;;24.00;17.65;;;4.60;99.90;;;;;;5058383;28;20233;-61
2024/03/02 01:18:04;;;;;;;26.35;17.48;;;4.60;99.90;;;;;;5062601;28;20312;-62
2024/03/02 01:20:30;;;;;;;22.95;17.27;;;4.60;99.90;;;;;;5063321;28;20242;-62
2024/03/02 01:22:57;;;;;;;23.77;17.88;;;4.60;99.90;;;;;;5056584;28;20301;-62
2024/03/02 01:25:26;;;;;;;25.58;19.95;;;4.60;99.90;;;;;;5067638;28;20206;-62
2024/03/02 01:27:52;;;;;;;25.77;19.48;;;4.60;99.90;;;;;;5069887;28;20346;-62
2024/03/02 01:30:19;;;;;;;25.90;19.13;;;4.60;99.90;;;;;;5067590;28;20917;-62
2024/03/02 01:32:46;;;;;;;25.38;19.55;;;4.60;99.90;;;;;;5056072;28;20690;-62
2024/03/02 01:35:14;;;;;;;26.45;18.65;;;4.60;99.90;;;;;;5070021;28;20212;-62
2024/03/02 01:37:41;;;;;;;25.98;20.42;;;4.60;99.90;;;;;;5071412;28;20237;-61
2024/03/02 01:40:09;;;;;;;27.75;20.60;;;4.60;99.90;;;;;;5056904;28;20216;-62
2024/03/02 01:42:38;;;;;;;26.20;17.50;;;4.60;99.90;;;;;;5063428;28;20559;-62
2024/03/02 01:45:07;;;;;;;21.88;18.23;;;4.60;99.90;;;;;;5069702;28;20214;-62
2024/03/02 01:47:34;;;;;;;22.52;19.33;;;4.60;99.90;;;;;;5071423;28;20234;-62
2024/03/02 01:50:01;;;;;;;22.60;17.73;;;4.60;99.90;;;;;;5071543;28;20205;-62
2024/03/02 01:52:29;;;;;;;22.02;19.42;;;4.60;99.90;;;;;;5071274;28;20609;-61
2024/03/02 01:54:56;;;;;;;24.85;18.15;;;4.60;99.90;;;;;;5071981;28;20214;-62
2024/03/02 01:57:23;;;;;;;24.67;20.13;;;4.60;99.90;;;;;;5071797;28;20234;-62
2024/03/02 01:59:51;;;;;;;25.38;19.65;;;4.60;99.90;;;;;;5071332;28;20213;-62
2024/03/02 02:02:18;;;;;;;26.38;19.58;;;4.60;99.90;;;;;;5071172;28;20205;-62
2024/03/02 02:04:45;;;;;;;23.25;19.75;;;4.60;99.90;;;;;;5071611;28;20577;-61
2024/03/02 02:07:14;;;;;;;25.58;18.73;;;4.60;99.90;;;;;;5071354;28;20230;-61
2024/03/02 02:09:41;;;;;;;24.90;18.60;;;4.60;99.90;;;;;;5071080;28;20214;-61
2024/03/02 02:12:08;;;;;;;22.48;17.70;;;4.60;99.90;;;;;;5071088;28;20229;-62
2024/03/02 02:14:35;;;;;;;23.25;17.52;;;4.60;99.90;;;;;;5070943;28;20771;-62
2024/03/02 02:17:04;;;;;;;21.20;17.90;;;4.60;99.90;;;;;;5071296;28;20225;-61
2024/03/02 02:19:30;;;;;;;22.88;16.98;;;4.60;99.90;;;;;;5071030;28;20305;-61
2024/03/02 02:21:59;;;;;;;25.48;19.42;;;4.60;99.90;;;;;;5071041;28;20209;-62
2024/03/02 02:24:25;;;;;;;22.02;18.15;;;4.60;99.90;;;;;;5070657;28;20223;-61
2024/03/02 02:26:52;;;;;;;23.52;19.17;;;4.60;99.90;;;;;;5071130;28;20230;-62
2024/03/02 02:29:19;;;;;;;25.35;18.65;;;4.60;99.90;;;;;;5070976;28;20209;-62
2024/03/02 02:31:46;;;;;;;22.77;17.60;;;4.60;99.90;;;;;;5071106;28;20687;-61
2024/03/02 02:34:13;;;;;;;22.63;17.90;;;4.60;99.90;;;;;;5069622;28;20219;-61
2024/03/02 02:36:40;;;;;;;21.63;16.30;;;4.50;99.90;;;;;;5070828;28;20290;-64
2024/03/02 02:39:11;;;;;;;20.92;16.50;;;4.50;99.90;;;;;;5070614;28;20209;-64
2024/03/02 02:41:38;;;;;;;21.20;18.38;;;4.50;99.90;;;;;;5070930;28;20209;-64
2024/03/02 02:44:06;;;;;;;18.92;16.35;;;4.50;99.90;;;;;;5070383;28;20216;-64
2024/03/02 02:46:33;;;;;;;25.35;19.33;;;4.50;99.90;;;;;;5070661;28;20230;-61
2024/03/02 02:49:00;;;;;;;24.48;17.90;;;4.40;99.90;;;;;;5070694;28;20213;-61
2024/03/02 02:51:26;;;;;;;24.15;18.83;;;4.40;99.90;;;;;;5070480;28;20730;-61
2024/03/02 02:53:53;;;;;;;22.30;16.88;;;4.40;99.90;;;;;;5069990;28;20212;-61
2024/03/02 02:56:21;;;;;;;20.92;16.17;;;4.40;99.90;;;;;;5070675;28;20415;-62
2024/03/02 02:58:48;;;;;;;23.23;17.48;;;4.30;99.90;;;;;;5070494;28;20221;-61
2024/03/02 03:01:16;;;;;;;21.95;16.55;;;4.30;99.90;;;;;;5070488;28;20210;-61
2024/03/02 03:03:43;;;;;;;23.08;15.70;;;4.30;99.90;;;;;;5070047;28;20210;-62
2024/03/02 03:06:10;;;;;;;29.30;17.00;;;4.30;99.90;;;;;;5070247;28;20299;-61
2024/03/02 03:08:37;;;;;;;23.27;17.38;;;4.20;99.90;;;;;;5070264;28;20775;-61
2024/03/02 03:11:04;;;;;;;22.67;15.73;;;4.20;99.90;;;;;;5070133;28;20233;-61
2024/03/02 03:13:33;;;;;;;21.73;17.13;;;4.20;99.90;;;;;;5069723;28;20628;-62
2024/03/02 03:16:00;;;;;;;23.67;16.45;;;4.20;99.90;;;;;;5070175;28;20237;-62
2024/03/02 03:18:27;;;;;;;19.33;16.98;;;4.10;99.90;;;;;;5070167;28;20234;-61
2024/03/02 03:20:53;;;;;;;20.98;18.73;;;4.10;99.90;;;;;;5070019;28;20216;-61
2024/03/02 03:23:20;;;;;;;22.35;17.23;;;4.00;99.90;;;;;;5069717;28;20212;-62
2024/03/02 03:25:47;;;;;;;18.02;15.07;;;4.00;99.90;;;;;;5070043;28;20250;-62
2024/03/02 03:28:14;;;;;;;19.65;14.48;;;4.00;99.90;;;;;;5069759;28;20229;-62
2024/03/02 03:30:43;;;;;;;20.65;16.60;;;3.90;99.90;;;;;;5069795;28;20205;-61
2024/03/02 03:33:09;;;;;;;21.38;16.33;;;3.90;99.90;;;;;;5069473;28;20278;-61
2024/03/02 03:35:38;;;;;;;25.92;16.25;;;3.90;99.90;;;;;;5069718;28;20217;-62
2024/03/02 03:38:05;;;;;;;18.27;16.33;;;3.80;99.90;;;;;;5069403;28;20312;-62
2024/03/02 03:40:32;;;;;;;23.13;16.80;;;3.80;99.90;;;;;;5069487;28;20766;-61
2024/03/02 03:42:59;;;;;;;19.48;15.02;;;3.80;99.90;;;;;;5069180;28;20202;-62
2024/03/02 03:45:26;;;;;;;28.38;17.40;;;3.70;99.90;;;;;;5069452;28;20659;-62
2024/03/02 03:47:55;;;;;;;22.17;15.88;;;3.70;99.90;;;;;;5069328;28;20230;-62
2024/03/02 03:50:22;;;;;;;19.95;15.68;;;3.70;99.90;;;;;;5069070;28;20305;-61
2024/03/02 03:52:49;;;;;;;18.70;15.07;;;3.70;99.90;;;;;;5068917;28;20225;-62
2024/03/02 03:55:16;;;;;;;17.58;15.07;;;3.70;99.90;;;;;;5069235;28;20304;-61
2024/03/02 03:57:42;;;;;;;24.60;15.30;;;3.60;99.90;;;;;;5069325;28;20234;-61
2024/03/02 04:00:11;;;;;;;17.60;14.13;;;3.60;99.90;;;;;;5069146;28;20296;-61
2024/03/02 04:02:38;;;;;;;22.90;14.93;;;3.50;99.90;;;;;;5068663;28;20212;-62
2024/03/02 04:05:09;;;;;;;20.58;15.55;;;3.50;99.90;;;;;;5069271;28;20209;-61
2024/03/02 04:07:39;;;;;;;25.27;15.70;;;3.50;99.90;;;;;;5069240;28;20233;-61
2024/03/02 04:10:09;;;;;;;16.10;14.30;;;3.40;99.90;;;;;;5069029;28;20209;-62
2024/03/02 04:12:36;;;;;;;15.60;12.70;;;3.40;99.90;;;;;;5068450;28;20553;-61
2024/03/02 04:15:04;;;;;;;19.58;15.27;;;3.30;99.90;;;;;;5068936;28;20217;-61
2024/03/02 04:17:33;;;;;;;17.65;13.93;;;3.30;99.90;;;;;;5066419;28;20232;-61
2024/03/02 04:20:00;;;;;;;26.23;15.70;;;3.30;99.90;;;;;;5068662;28;20213;-62
2024/03/02 04:22:28;;;;;;;24.20;17.08;;;3.20;99.90;;;;;;5068403;28;20206;-62
2024/03/02 04:24:55;;;;;;;22.20;16.27;;;3.20;99.90;;;;;;5068771;28;20378;-61
2024/03/02 04:27:22;;;;;;;17.42;14.32;;;3.20;99.90;;;;;;5068311;28;20327;-61
2024/03/02 04:29:49;;;;;;;19.02;13.52;;;3.10;99.90;;;;;;5068735;28;20205;-61
2024/03/02 04:32:16;;;;;;;16.95;12.82;;;3.10;99.90;;;;;;5068062;28;20229;-60
2024/03/02 04:34:43;;;;;;;23.40;14.98;;;3.00;99.90;;;;;;5068877;28;20209;-61
2024/03/02 04:37:14;;;;;;;17.27;15.45;;;3.00;99.90;;;;;;5068875;28;20902;-62
2024/03/02 04:39:42;;;;;;;17.38;13.10;;;2.90;99.90;;;;;;5068730;28;20680;-61
2024/03/02 04:42:09;;;;;;;18.95;15.57;;;2.90;99.90;;;;;;5068753;28;20320;-61
2024/03/02 04:44:36;;;;;;;23.45;14.93;;;2.80;99.90;;;;;;5068295;28;20215;-61
2024/03/02 04:47:04;;;;;;;17.98;13.60;;;2.80;99.90;;;;;;5068663;28;20283;-61
2024/03/02 04:49:31;;;;;;;19.98;14.68;;;2.70;99.90;;;;;;5068315;28;20296;-61
2024/03/02 04:51:57;;;;;;;18.83;14.52;;;2.70;99.90;;;;;;5068451;28;20229;-61
2024/03/02 04:54:25;;;;;;;20.75;15.32;;;2.60;99.90;;;;;;5067798;28;20216;-61
2024/03/02 04:56:53;;;;;;;19.65;15.50;;;2.60;99.90;;;;;;5068109;28;20226;-61
2024/03/02 04:59:20;;;;;;;22.52;13.85;;;2.60;99.90;;;;;;5068260;28;20209;-61
2024/03/02 05:01:48;;;;;;;18.48;14.10;;;2.50;99.90;;;;;;5068278;28;20676;-61
2024/03/02 05:04:15;;;;;;;15.48;13.50;;;2.50;99.90;;;;;;5067970;28;20213;-61
2024/03/02 05:06:42;;;;;;;15.63;13.73;;;2.40;99.90;;;;;;5068379;28;20844;-61
2024/03/02 05:09:09;;;;;;;23.00;14.15;;;2.40;99.90;;;;;;5068189;28;20300;-61
2024/03/02 05:14:18;;;;;;;18.45;14.52;;;2.40;99.90;;;;;;5023630;28;20718;-61
2024/03/02 05:16:44;;;;;;;22.58;13.73;;;2.30;99.90;;;;;;5068228;28;20810;-61
2024/03/02 05:19:11;;;;;;;16.20;13.63;;;2.30;99.90;;;;;;5068104;28;20237;-61
2024/03/02 05:21:38;;;;;;;22.02;14.15;;;2.30;99.90;;;;;;5068225;28;20235;-61
2024/03/02 05:24:05;;;;;;;20.77;14.20;;;2.20;99.90;;;;;;5067676;28;20215;-61
2024/03/02 05:26:32;;;;;;;24.10;16.33;;;2.20;99.90;;;;;;5068232;28;20248;-61
2024/03/02 05:28:59;;;;;;;21.38;14.48;;;2.20;99.90;;;;;;5068052;28;20797;-60
2024/03/02 05:31:27;;;;;;;21.02;14.57;;;2.10;99.90;;;;;;5068111;28;20213;-62
2024/03/02 05:33:54;;;;;;;16.67;14.98;;;2.10;99.90;;;;;;5067739;28;20220;-61
2024/03/02 05:36:21;;;;;;;18.92;13.05;;;2.10;99.90;;;;;;5067923;28;20222;-61
2024/03/02 05:38:48;;;;;;;22.77;15.43;;;2.00;99.90;;;;;;5068405;28;20210;-62
2024/03/02 05:41:15;;;;;;;16.80;11.95;;;2.00;99.90;;;;;;5068115;28;20377;-61
2024/03/02 05:43:42;;;;;;;22.15;14.90;;;2.00;99.90;;;;;;5067855;28;20202;-61
2024/03/02 05:46:08;;;;;;;18.60;14.30;;;1.90;99.90;;;;;;5068256;28;20575;-61
2024/03/02 05:48:36;;;;;;;21.20;14.35;;;1.90;99.90;;;;;;5067955;28;20236;-61
2024/03/02 05:51:04;;;;;;;20.45;12.80;;;1.90;99.90;;;;;;5068014;28;20206;-61
2024/03/02 05:53:31;;;;;;;21.42;14.63;;;1.90;99.90;;;;;;5067556;28;20230;-61
2024/03/02 05:55:57;;;;;;;18.40;14.35;;;1.90;99.90;;;;;;5067973;28;20568;-61
2024/03/02 05:58:37;;;;;;;19.65;13.52;;;1.80;99.90;;;;;;5067833;28;20233;-61
2024/03/02 06:01:04;;;;;;;19.02;12.40;;;1.80;99.90;;;;;;5067629;28;20213;-61
2024/03/02 06:03:31;;;;;;;17.45;13.10;;;1.80;99.90;;;;;;5067510;28;20201;-61
2024/03/02 06:05:59;;;;;;;18.77;13.88;;;1.70;99.90;;;;;;5067708;28;20214;-61
2024/03/02 06:08:26;;;;;;;22.98;13.98;;;1.70;99.90;;;;;;5067806;28;20238;-61
2024/03/02 06:10:53;;;;;;;16.85;14.27;;;1.70;99.90;;;;;;5071220;28;20210;-61
2024/03/02 06:13:20;;;;;;;18.77;13.43;;;1.70;99.90;;;;;;5070666;28;20221;-61
2024/03/02 06:15:47;;;;;;;28.10;14.52;;;1.70;99.90;;;;;;5071174;28;20235;-61
2024/03/02 06:18:13;;;;;;;19.38;14.07;;;1.70;99.90;;;;;;5071576;28;20252;-61
2024/03/02 06:20:40;;;;;;;17.13;13.65;;;1.70;99.90;;;;;;5071502;28;20220;-61
2024/03/02 06:23:09;;;;;;;23.42;14.70;;;1.70;99.90;;;;;;5070725;28;20210;-61
2024/03/02 06:25:35;;;;;;;19.25;13.43;;;1.80;99.90;;;;;;5071113;28;20214;-62
2024/03/02 06:28:04;;;;;;;19.30;12.60;;;1.80;99.90;;;;;;5071005;28;20236;-61
2024/03/02 06:30:31;;;;;;;17.98;13.15;;;1.80;99.90;;;;;;5071064;28;20848;-61
2024/03/02 06:32:57;;;;;;;22.95;15.75;;;1.90;99.90;;;;;;5070203;28;20230;-61
2024/03/02 06:35:24;;;;;;;23.23;15.70;;;1.90;99.90;;;;;;5071050;28;20205;-61
2024/03/02 06:37:51;;;;;;;20.15;14.32;;;1.90;99.90;;;;;;5084753;22;20244;-62
2024/03/02 06:40:21;;;;;;;22.58;14.18;;;1.90;99.90;;;;;;5050516;28;20703;-62
2024/03/02 06:42:47;;;;;;;21.88;14.45;;;2.00;99.90;;;;;;5050272;28;20623;-62
2024/03/02 06:45:14;;;;;;;24.00;14.20;;;2.00;99.90;;;;;;5050499;28;20297;-62
2024/03/02 06:47:41;;;;;;;23.05;15.10;;;2.10;99.90;;;;;;5050719;28;20317;-63
2024/03/02 06:50:09;;;;;;;18.67;13.25;;;2.10;99.90;;;;;;5050535;28;20210;-63
2024/03/02 06:52:36;;;;;;;22.60;15.80;;;2.20;99.90;;;;;;5050348;28;21207;-63
2024/03/02 06:55:03;;;;;;;20.50;14.02;;;2.20;99.90;;;;;;5050621;28;20232;-62
2024/03/02 06:57:32;;;;;;;20.83;15.35;;;2.30;99.90;;;;;;5050472;28;20642;-63
2024/03/02 06:59:59;;;;;;;23.92;14.20;;;2.40;99.90;;;;;;5050308;28;20211;-63
2024/03/02 07:02:26;;;;;;;27.02;16.15;;;2.50;99.90;;;;;;5049673;28;20206;-62
2024/03/02 07:04:53;;;;;;;21.85;14.07;;;2.50;99.90;;;;;;5050360;28;20589;-62
2024/03/02 07:07:20;;;;;;;27.15;21.38;;;2.60;99.90;;;;;;5050267;28;20880;-62
2024/03/02 07:09:47;;;;;;;25.92;18.77;;;2.70;99.90;;;;;;5050000;28;20216;-63
2024/03/02 07:12:15;;;;;;;24.98;18.48;;;2.80;99.90;;;;;;5049675;28;20744;-63
2024/03/02 07:15:11;;;;;;;22.75;16.15;;;2.90;99.90;;;;;;5050101;28;20211;-62
2024/03/02 07:17:37;;;;;;;29.25;20.00;;;2.90;99.90;;;;;;5050149;28;20233;-62
2024/03/02 07:20:06;;;;;;;28.65;16.58;;;3.00;99.90;;;;;;5049481;28;20860;-63
2024/03/02 07:22:33;;;;;;;25.20;19.30;;;3.10;99.90;;;;;;5049548;28;20241;-64
2024/03/02 07:25:00;;;;;;;35.03;21.00;;;3.20;99.90;;;;;;5050177;28;20218;-63
2024/03/02 07:27:27;;;;;;;23.13;18.13;;;3.30;99.90;;;;;;5049518;28;20732;-62
2024/03/02 07:29:55;;;;;;;29.33;20.50;;;3.40;99.90;;;;;;5048996;28;20210;-62
2024/03/02 07:32:22;;;;;;;32.55;21.33;;;3.50;99.90;;;;;;5047379;28;20226;-63
2024/03/02 07:34:50;;;;;;;34.65;22.02;;;3.70;99.90;;;;;;5049229;28;20213;-61
2024/03/02 07:37:17;;;;;;;28.20;19.80;;;3.80;99.90;;;;;;5048952;28;20893;-63
2024/03/02 07:39:46;;;;;;;28.15;20.17;;;3.90;99.90;;;;;;5048740;28;20737;-62
2024/03/02 07:42:12;;;;;;;32.40;22.50;;;4.10;99.90;;;;;;5045605;28;20217;-63
2024/03/02 07:44:39;;;;;;;29.02;19.88;;;4.20;99.90;;;;;;5048401;28;20210;-63
2024/03/02 07:47:08;;;;;;;29.13;19.73;;;4.40;99.90;;;;;;5048762;28;20222;-62
2024/03/02 07:49:35;;;;;;;26.58;19.05;;;4.50;99.90;;;;;;5048719;28;20202;-63
2024/03/02 07:52:02;;;;;;;28.80;21.38;;;4.60;99.90;;;;;;5046683;28;20217;-63
2024/03/02 07:54:29;;;;;;;28.02;19.63;;;4.80;99.90;;;;;;5049062;28;20234;-63
2024/03/02 07:56:56;;;;;;;23.77;18.08;;;4.90;99.90;;;;;;5049461;28;20701;-63
2024/03/02 07:59:22;;;;;;;24.40;19.10;;;5.00;99.90;;;;;;5049071;28;20352;-63
2024/03/02 08:01:50;;;;;;;23.45;20.17;;;5.20;99.90;;;;;;5049213;28;20233;-63
2024/03/02 08:04:18;;;;;;;30.05;21.02;;;5.40;99.90;;;;;;5048536;28;20225;-60
2024/03/02 08:06:47;;;;;;;26.48;20.60;;;5.50;99.90;;;;;;5049119;28;20770;-61
2024/03/02 08:09:13;;;;;;;26.20;20.58;;;5.60;99.90;;;;;;5048822;28;20305;-61
2024/03/02 08:11:40;;;;;;;30.80;22.35;;;5.80;99.90;;;;;;5049104;28;20220;-61
2024/03/02 08:14:07;;;;;;;30.20;23.70;;;6.00;99.90;;;;;;5048167;28;20788;-60
2024/03/02 08:16:34;;;;;;;24.70;18.65;;;6.10;99.90;;;;;;5048941;28;20313;-61
2024/03/02 08:19:01;;;;;;;27.52;18.05;;;6.40;99.90;;;;;;5048597;28;20280;-62
2024/03/02 08:21:30;;;;;;;24.50;18.50;;;6.60;99.90;;;;;;5049044;28;20298;-60
2024/03/02 08:23:58;;;;;;;28.83;20.58;;;6.70;99.90;;;;;;5048386;28;20289;-61
2024/03/02 08:26:25;;;;;;;25.65;18.38;;;6.90;99.90;;;;;;5048805;28;20682;-61
2024/03/02 08:28:52;;;;;;;24.42;20.20;;;7.10;99.90;;;;;;5048855;28;20317;-61
2024/03/02 08:31:18;;;;;;;26.13;21.70;;;7.20;99.90;;;;;;5048069;28;20210;-61
2024/03/02 08:33:45;;;;;;;24.05;17.67;;;7.40;99.90;;;;;;5047858;28;20519;-60
2024/03/02 08:36:12;;;;;;;26.90;21.25;;;7.60;99.90;;;;;;5048541;28;20214;-60
2024/03/02 08:38:41;;;;;;;23.27;17.00;;;7.80;99.90;;;;;;5048187;28;20234;-61
2024/03/02 08:41:08;;;;;;;22.13;18.50;;;7.90;99.90;;;;;;5048293;28;20535;-61
2024/03/02 08:43:35;;;;;;;22.73;18.47;;;8.00;99.90;;;;;;5047931;28;20242;-61
2024/03/02 08:46:02;;;;;;;23.23;16.77;;;8.20;99.90;;;;;;5048347;28;20963;-61
2024/03/02 08:48:29;;;;;;;22.00;19.03;;;8.20;99.90;;;;;;5047954;28;20469;-61
2024/03/02 08:50:56;;;;;;;19.00;15.47;;;8.30;99.90;;;;;;5047828;28;20444;-61
2024/03/02 08:53:23;;;;;;;21.85;18.10;;;8.50;99.90;;;;;;5047420;28;21015;-61
2024/03/02 08:55:51;;;;;;;23.23;17.40;;;8.60;99.90;;;;;;5048287;28;20673;-61
2024/03/02 08:58:18;;;;;;;22.27;17.13;;;8.70;99.90;;;;;;5048231;28;20468;-61
2024/03/02 09:00:45;;;;;;;17.97;15.80;;;8.80;99.90;;;;;;5048005;28;20826;-61
2024/03/02 09:03:12;;;;;;;19.90;15.47;;;8.90;99.90;;;;;;5040339;28;20471;-62
2024/03/02 09:05:38;;;;;;;22.77;16.50;;;9.00;99.90;;;;;;5043187;28;20442;-61
2024/03/02 09:08:06;;;;;;;20.30;15.43;;;9.10;99.90;;;;;;5032623;28;20984;-61
2024/03/02 09:10:33;;;;;;;22.23;16.30;;;9.20;99.90;;;;;;5046741;28;20485;-60
2024/03/02 09:13:02;;;;;;;19.50;15.50;;;9.20;99.90;;;;;;5046928;28;20484;-61
2024/03/02 09:15:29;;;;;;;20.80;17.27;;;9.30;99.90;;;;;;5047947;28;20452;-61
2024/03/02 09:17:56;;;;;;;21.83;15.10;;;9.30;99.90;;;;;;5035395;28;20477;-61
2024/03/02 09:20:23;;;;;;;21.00;15.80;;;9.30;99.90;;;;;;5042030;28;20951;-61
2024/03/02 09:22:50;;;;;;;22.00;16.40;;;9.40;99.90;;;;;;5047174;28;20452;-61
2024/03/02 09:25:17;;;;;;;18.07;16.17;;;9.40;99.90;;;;;;5046288;28;20459;-61
2024/03/02 09:27:43;;;;;;;25.40;16.00;;;9.40;99.90;;;;;;5029665;28;20466;-61
2024/03/02 09:30:13;;;;;;;19.97;14.10;;;9.40;99.90;;;;;;5047523;28;20459;-61
2024/03/02 09:32:40;;;;;;;21.20;16.10;;;9.40;99.90;;;;;;5036162;28;20472;-61
2024/03/02 09:35:08;;;;;;;15.83;14.23;;;9.40;99.90;;;;;;5036499;28;20449;-62
2024/03/02 09:37:35;;;;;;;17.80;15.90;;;9.50;99.90;;;;;;5032239;28;20547;-61
2024/03/02 09:40:02;;;;;;;16.70;14.73;;;9.60;99.90;;;;;;5043041;28;20821;-61
2024/03/02 09:42:30;;;;;;;18.40;14.30;;;9.60;99.90;;;;;;5046893;28;20510;-61
2024/03/02 09:44:57;;;;;;;17.00;13.90;;;9.70;99.90;;;;;;5038823;28;20444;-61
2024/03/02 09:47:26;;;;;;;20.17;16.00;;;9.70;99.90;;;;;;5048415;28;20562;-62
2024/03/02 09:49:53;;;;;;;17.47;14.03;;;9.70;99.90;;;;;;5044193;28;20466;-61
2024/03/02 09:52:20;;;;;;;16.07;14.07;;;9.80;99.90;;;;;;5041706;28;20448;-61
2024/03/02 09:54:48;;;;;;;19.13;15.30;;;9.80;99.90;;;;;;5049952;28;20491;-61
2024/03/02 09:57:16;;;;;;;17.13;13.13;;;9.90;99.90;;;;;;5047674;28;20546;-61
2024/03/02 09:59:45;;;;;;;19.20;16.50;;;9.90;99.90;;;;;;5044934;28;20456;-61
2024/03/02 10:02:12;;;;;;;17.73;14.33;;;10.00;99.90;;;;;;5036271;28;20875;-62
2024/03/02 10:04:40;;;;;;;16.53;13.83;;;10.10;99.90;;;;;;5044668;28;20940;-61
2024/03/02 10:07:14;;;;;;;19.30;14.33;;;10.20;99.90;;;;;;5038082;28;20468;-61
2024/03/02 10:09:41;;;;;;;16.77;13.70;;;10.30;99.90;;;;;;5050011;28;20528;-61
2024/03/02 10:12:11;;;;;;;18.53;14.57;;;10.40;99.90;;;;;;5048108;28;20589;-63
2024/03/02 10:14:38;;;;;;;17.30;14.60;;;10.60;99.90;;;;;;5034968;28;20949;-62
2024/03/02 10:17:07;;;;;;;17.07;14.43;;;10.80;99.90;;;;;;5043347;28;20478;-61
2024/03/02 10:19:34;;;;;;;18.10;13.57;;;11.00;99.90;;;;;;5030998;28;20548;-61
2024/03/02 10:22:05;;;;;;;16.93;13.80;;;11.30;99.90;;;;;;5032076;28;20457;-60
2024/03/02 10:24:38;;;;;;;17.50;13.70;;;11.60;99.90;;;;;;5030588;28;20445;-61
2024/03/02 10:27:09;;;;;;;17.03;14.83;;;11.90;99.90;;;;;;5032680;28;20470;-61
2024/03/02 10:29:39;;;;;;;13.87;12.40;;;12.10;99.90;;;;;;5042967;28;20449;-61
2024/03/02 10:32:07;;;;;;;14.43;12.50;;;12.20;99.90;;;;;;5049571;28;20453;-61
2024/03/02 10:34:34;;;;;;;21.43;14.23;;;12.40;99.90;;;;;;5030891;28;20500;-61
2024/03/02 10:37:02;;;;;;;16.27;12.90;;;12.50;99.90;;;;;;5047714;28;21198;-62
2024/03/02 10:39:31;;;;;;;15.00;11.67;;;12.60;99.90;;;;;;5030785;28;20450;-61
2024/03/02 10:41:59;;;;;;;13.77;12.27;;;12.70;99.90;;;;;;5049079;28;20457;-62
2024/03/02 10:44:27;;;;;;;13.80;12.13;;;12.70;99.90;;;;;;5048679;28;20448;-62
2024/03/02 10:46:56;;;;;;;13.93;12.43;;;12.80;99.90;;;;;;5035311;28;20568;-61
2024/03/02 10:49:25;;;;;;;14.10;12.23;;;12.90;99.90;;;;;;5043265;28;20826;-61
2024/03/02 10:51:52;;;;;;;15.23;12.80;;;13.10;99.90;;;;;;5042497;28;20513;-61
2024/03/02 10:54:25;;;;;;;13.20;11.60;;;13.20;99.90;;;;;;5037942;28;20491;-61
2024/03/02 10:56:53;;;;;;;13.47;12.10;;;13.40;99.90;;;;;;5048744;28;20459;-61
2024/03/02 10:59:28;;;;;;;12.27;11.10;;;13.50;99.90;;;;;;5040046;28;20449;-61
2024/03/02 11:01:58;;;;;;;14.53;11.30;;;13.60;99.90;;;;;;5041901;28;21198;-61
2024/03/02 11:04:27;;;;;;;11.90;10.73;;;13.70;99.90;;;;;;5046930;28;20939;-62
2024/03/02 11:06:59;;;;;;;13.50;11.57;;;13.70;99.90;;;;;;5048701;28;20461;-61
2024/03/02 11:09:30;;;;;;;13.07;10.40;;;13.80;99.90;;;;;;5034917;28;20444;-61
2024/03/02 11:12:03;;;;;;;14.03;11.00;;;13.80;99.90;;;;;;5045563;28;20540;-62
2024/03/02 11:14:34;;;;;;;12.20;11.00;;;13.90;99.90;;;;;;5038489;28;20525;-61
2024/03/02 11:17:03;;;;;;;13.20;11.47;;;13.90;99.90;;;;;;5041101;28;20485;-61
2024/03/02 11:19:31;;;;;;;13.00;10.23;;;14.00;99.90;;;;;;5040166;28;20453;-61
2024/03/02 11:21:58;;;;;;;14.03;12.30;;;14.00;99.90;;;;;;5045273;28;20841;-62
2024/03/02 11:24:34;;;;;;;13.67;11.43;;;14.10;99.90;;;;;;5034892;28;20468;-61
2024/03/02 11:27:01;;;;;;;18.03;11.10;;;14.20;99.90;;;;;;5048091;28;20472;-61
2024/03/02 11:29:47;;;;;;;10.03;9.00;;;14.30;99.90;;;;;;5048582;28;21057;-62
2024/03/02 11:32:16;;;;;;;10.57;9.47;;;14.40;99.90;;;;;;5048634;28;20459;-61
2024/03/02 11:34:46;;;;;;;11.47;9.87;;;14.50;99.90;;;;;;5048059;28;20489;-62
2024/03/02 11:37:14;;;;;;;11.07;9.97;;;14.60;99.90;;;;;;5037740;28;20510;-61
2024/03/02 11:39:44;;;;;;;10.50;9.47;;;14.80;99.90;;;;;;5043125;28;20453;-62
2024/03/02 11:42:13;;;;;;;11.10;9.83;;;14.90;99.90;;;;;;5037392;28;20483;-61
2024/03/02 11:44:43;;;;;;;13.33;10.30;;;15.00;99.90;;;;;;5042540;28;20441;-62
2024/03/02 11:47:14;;;;;;;9.87;8.97;;;15.10;99.90;;;;;;5040137;28;20469;-62
2024/03/02 11:49:41;;;;;;;9.07;8.17;;;15.20;99.90;;;;;;5041500;28;20441;-62
2024/03/02 11:52:11;;;;;;;9.97;8.97;;;15.40;99.90;;;;;;5047847;28;20441;-62
2024/03/02 11:54:40;;;;;;;14.00;8.57;;;15.60;99.90;;;;;;5045644;28;20484;-64
2024/03/02 11:57:08;;;;;;;10.40;8.60;;;15.70;99.90;;;;;;5047527;28;21308;-61
2024/03/02 11:59:35;;;;;;;11.50;10.10;;;15.80;99.90;;;;;;5045847;28;20453;-61
2024/03/02 12:02:03;;;;;;;7.47;6.83;;;15.90;99.90;;;;;;5048066;28;20456;-62
2024/03/02 12:04:30;;;;;;;8.17;7.40;;;16.00;99.90;;;;;;5047172;28;20528;-61
2024/03/02 12:07:00;;;;;;;10.10;8.70;;;16.10;99.90;;;;;;5047417;28;21055;-61
2024/03/02 12:09:27;;;;;;;8.20;7.50;;;16.20;99.10;;;;;;5046949;28;20445;-62
2024/03/02 12:12:04;;;;;;;8.27;7.57;;;16.30;99.90;;;;;;5047180;28;20828;-61
2024/03/02 12:14:34;;;;;;;8.30;7.50;;;16.50;99.50;;;;;;5044313;28;21383;-61
2024/03/02 12:17:01;;;;;;;9.20;8.40;;;16.60;99.20;;;;;;5047898;28;20548;-61
2024/03/02 12:19:29;;;;;;;8.60;7.50;;;16.80;99.90;;;;;;5047957;28;20845;-61
2024/03/02 12:21:57;;;;;;;9.03;8.10;;;17.00;99.90;;;;;;5040098;28;20551;-63
2024/03/02 12:24:25;;;;;;;8.00;7.30;;;17.30;99.50;;;;;;5040234;28;20536;-63
2024/03/02 12:26:52;;;;;;;9.00;8.10;;;17.60;98.50;;;;;;5044118;28;20457;-61
2024/03/02 12:29:20;;;;;;;8.00;7.20;;;17.80;98.20;;;;;;5046651;28;20543;-61
2024/03/02 12:31:50;;;;;;;7.30;6.60;;;18.00;97.50;;;;;;5042463;28;20453;-61
2024/03/02 12:34:18;;;;;;;7.20;6.60;;;18.20;96.80;;;;;;5043570;28;20495;-61
2024/03/02 12:36:49;;;;;;;6.47;5.87;;;18.40;97.30;;;;;;5033230;28;20940;-61
2024/03/02 12:39:17;;;;;;;6.30;5.80;;;18.70;96.30;;;;;;5078522;22;20522;-63
2024/03/02 12:41:44;;;;;;;7.03;6.47;;;19.10;94.50;;;;;;5060900;28;20814;-62